sensor_id;sensor_type;location;lat;lon;timestamp;pressure;altitude;pressure_sealevel;temperature;humidity
54978;BME280;40873;47.522;19.106;2023-05-17T00:00:57;99504.47;;;13.63;100.00
54978;BME280;40873;47.522;19.106;2023-05-17T00:03:24;99513.25;;;13.64;100.00
54978;BME280;40873;47.522;19.106;2023-05-17T00:05:51;99505.31;;;13.64;100.00
54978;BME280;40873;47.522;19.106;2023-05-17T00:08:18;99501.81;;;13.63;100.00
54978;BME280;40873;47.522;19.106;2023-05-17T00:10:47;99509.03;;;13.61;100.00
54978;BME280;40873;47.522;19.106;2023-05-17T00:13:14;99512.53;;;13.62;100.00
54978;BME280;40873;47.522;19.106;2023-05-17T00:15:42;99512.81;;;13.59;100.00
54978;BME280;40873;47.522;19.106;2023-05-17T00:18:09;99514.63;;;13.58;100.00
54978;BME280;40873;47.522;19.106;2023-05-17T00:20:41;99509.75;;;13.63;100.00
54978;BME280;40873;47.522;19.106;2023-05-17T00:23:07;99512.66;;;13.60;100.00
54978;BME280;40873;47.522;19.106;2023-05-17T00:25:35;99508.47;;;13.58;100.00
54978;BME280;40873;47.522;19.106;2023-05-17T00:28:02;99502.44;;;13.56;100.00
54978;BME280;40873;47.522;19.106;2023-05-17T00:30:29;99501.75;;;13.54;100.00
54978;BME280;40873;47.522;19.106;2023-05-17T00:32:56;99501.88;;;13.52;100.00
54978;BME280;40873;47.522;19.106;2023-05-17T00:35:23;99495.16;;;13.48;100.00
54978;BME280;40873;47.522;19.106;2023-05-17T00:37:52;99496.28;;;13.46;100.00
54978;BME280;40873;47.522;19.106;2023-05-17T00:40:19;99495.31;;;13.47;100.00
54978;BME280;40873;47.522;19.106;2023-05-17T00:42:49;99494.22;;;13.49;100.00
54978;BME280;40873;47.522;19.106;2023-05-17T00:45:16;99495.06;;;13.50;100.00
54978;BME280;40873;47.522;19.106;2023-05-17T00:47:45;99499.63;;;13.48;100.00
54978;BME280;40873;47.522;19.106;2023-05-17T00:50:15;99497.25;;;13.44;100.00
54978;BME280;40873;47.522;19.106;2023-05-17T00:52:42;99501.97;;;13.41;100.00
54978;BME280;40873;47.522;19.106;2023-05-17T00:55:10;99497.91;;;13.37;100.00
54978;BME280;40873;47.522;19.106;2023-05-17T00:57:37;99504.19;;;13.36;100.00
54978;BME280;40873;47.522;19.106;2023-05-17T01:00:05;99511.81;;;13.29;100.00
54978;BME280;40873;47.522;19.106;2023-05-17T01:02:34;99511.22;;;13.26;100.00
54978;BME280;40873;47.522;19.106;2023-05-17T01:05:02;99506.41;;;13.20;100.00
54978;BME280;40873;47.522;19.106;2023-05-17T01:07:29;99516.44;;;13.16;100.00
54978;BME280;40873;47.522;19.106;2023-05-17T01:09:59;99515.44;;;13.17;100.00
54978;BME280;40873;47.522;19.106;2023-05-17T01:15:24;99521.97;;;13.13;100.00
54978;BME280;40873;47.522;19.106;2023-05-17T01:18:16;99516.66;;;13.13;100.00
54978;BME280;40873;47.522;19.106;2023-05-17T01:20:44;99511.28;;;13.14;100.00
54978;BME280;40873;47.522;19.106;2023-05-17T01:28:28;99501.75;;;13.12;100.00
54978;BME280;40873;47.522;19.106;2023-05-17T01:30:57;99502.59;;;13.12;100.00
54978;BME280;40873;47.522;19.106;2023-05-17T01:33:27;99489.34;;;13.12;100.00
54978;BME280;40873;47.522;19.106;2023-05-17T01:35:54;99491.28;;;13.10;100.00
54978;BME280;40873;47.522;19.106;2023-05-17T01:38:21;99495.63;;;13.11;100.00
54978;BME280;40873;47.522;19.106;2023-05-17T01:41:03;99499.09;;;13.12;100.00
54978;BME280;40873;47.522;19.106;2023-05-17T01:49:07;99487.44;;;13.14;100.00
54978;BME280;40873;47.522;19.106;2023-05-17T01:51:40;99486.56;;;13.14;100.00
54978;BME280;40873;47.522;19.106;2023-05-17T01:54:11;99484.38;;;13.19;100.00
54978;BME280;40873;47.522;19.106;2023-05-17T01:56:47;99486.81;;;13.22;100.00
54978;BME280;40873;47.522;19.106;2023-05-17T01:59:21;99491.59;;;13.28;100.00
54978;BME280;40873;47.522;19.106;2023-05-17T02:01:58;99486.84;;;13.32;100.00
54978;BME280;40873;47.522;19.106;2023-05-17T02:04:32;99481.03;;;13.38;100.00
54978;BME280;40873;47.522;19.106;2023-05-17T02:07:03;99491.25;;;13.42;100.00
54978;BME280;40873;47.522;19.106;2023-05-17T02:09:31;99486.78;;;13.43;100.00
54978;BME280;40873;47.522;19.106;2023-05-17T02:12:03;99494.47;;;13.46;100.00
54978;BME280;40873;47.522;19.106;2023-05-17T02:14:30;99487.34;;;13.47;100.00
54978;BME280;40873;47.522;19.106;2023-05-17T02:17:00;99493.47;;;13.47;100.00
54978;BME280;40873;47.522;19.106;2023-05-17T02:19:27;99496.97;;;13.48;100.00
54978;BME280;40873;47.522;19.106;2023-05-17T02:21:57;99494.59;;;13.44;100.00
54978;BME280;40873;47.522;19.106;2023-05-17T02:24:25;99504.38;;;13.44;100.00
54978;BME280;40873;47.522;19.106;2023-05-17T02:26:52;99505.34;;;13.43;100.00
54978;BME280;40873;47.522;19.106;2023-05-17T02:29:19;99504.50;;;13.42;100.00
54978;BME280;40873;47.522;19.106;2023-05-17T02:31:48;99506.41;;;13.40;100.00
54978;BME280;40873;47.522;19.106;2023-05-17T02:34:15;99503.91;;;13.39;100.00
54978;BME280;40873;47.522;19.106;2023-05-17T02:36:42;99513.81;;;13.37;100.00
54978;BME280;40873;47.522;19.106;2023-05-17T02:39:10;99527.19;;;13.35;100.00
54978;BME280;40873;47.522;19.106;2023-05-17T02:41:37;99532.72;;;13.32;100.00
54978;BME280;40873;47.522;19.106;2023-05-17T02:44:04;99532.88;;;13.31;100.00
54978;BME280;40873;47.522;19.106;2023-05-17T02:46:31;99530.91;;;13.33;100.00
54978;BME280;40873;47.522;19.106;2023-05-17T02:48:58;99535.50;;;13.31;100.00
54978;BME280;40873;47.522;19.106;2023-05-17T02:51:26;99538.16;;;13.31;100.00
54978;BME280;40873;47.522;19.106;2023-05-17T02:53:53;99538.16;;;13.31;100.00
54978;BME280;40873;47.522;19.106;2023-05-17T02:56:20;99535.75;;;13.28;100.00
54978;BME280;40873;47.522;19.106;2023-05-17T02:58:47;99535.66;;;13.29;100.00
54978;BME280;40873;47.522;19.106;2023-05-17T03:01:14;99529.06;;;13.24;100.00
54978;BME280;40873;47.522;19.106;2023-05-17T03:03:41;99536.03;;;13.25;100.00
54978;BME280;40873;47.522;19.106;2023-05-17T03:06:09;99536.31;;;13.22;100.00
54978;BME280;40873;47.522;19.106;2023-05-17T03:08:37;99531.94;;;13.21;100.00
54978;BME280;40873;47.522;19.106;2023-05-17T03:11:04;99540.63;;;13.23;100.00
54978;BME280;40873;47.522;19.106;2023-05-17T03:13:32;99532.78;;;13.21;100.00
54978;BME280;40873;47.522;19.106;2023-05-17T03:15:59;99537.00;;;13.24;100.00
54978;BME280;40873;47.522;19.106;2023-05-17T03:18:26;99546.03;;;13.21;100.00
54978;BME280;40873;47.522;19.106;2023-05-17T03:20:54;99553.88;;;13.23;100.00
54978;BME280;40873;47.522;19.106;2023-05-17T03:23:20;99546.75;;;13.23;100.00
54978;BME280;40873;47.522;19.106;2023-05-17T03:25:50;99545.66;;;13.26;100.00
54978;BME280;40873;47.522;19.106;2023-05-17T03:28:17;99543.97;;;13.25;100.00
54978;BME280;40873;47.522;19.106;2023-05-17T03:30:45;99548.06;;;13.29;100.00
54978;BME280;40873;47.522;19.106;2023-05-17T03:33:13;99540.69;;;13.32;100.00
54978;BME280;40873;47.522;19.106;2023-05-17T03:35:48;99551.88;;;13.36;100.00
54978;BME280;40873;47.522;19.106;2023-05-17T03:38:15;99546.44;;;13.37;100.00
54978;BME280;40873;47.522;19.106;2023-05-17T03:40:45;99542.53;;;13.41;100.00
54978;BME280;40873;47.522;19.106;2023-05-17T03:43:12;99542.44;;;13.43;100.00
54978;BME280;40873;47.522;19.106;2023-05-17T03:45:43;99556.38;;;13.45;100.00
54978;BME280;40873;47.522;19.106;2023-05-17T03:48:10;99568.41;;;13.49;100.00
54978;BME280;40873;47.522;19.106;2023-05-17T03:50:38;99573.31;;;13.54;100.00
54978;BME280;40873;47.522;19.106;2023-05-17T03:53:06;99579.19;;;13.57;100.00
54978;BME280;40873;47.522;19.106;2023-05-17T03:55:33;99586.03;;;13.60;100.00
54978;BME280;40873;47.522;19.106;2023-05-17T03:58:01;99589.28;;;13.63;100.00
54978;BME280;40873;47.522;19.106;2023-05-17T04:00:28;99588.16;;;13.66;100.00
54978;BME280;40873;47.522;19.106;2023-05-17T04:02:58;99595.00;;;13.68;100.00
54978;BME280;40873;47.522;19.106;2023-05-17T04:05:30;99589.59;;;13.70;100.00
54978;BME280;40873;47.522;19.106;2023-05-17T04:07:58;99591.38;;;13.69;100.00
54978;BME280;40873;47.522;19.106;2023-05-17T04:10:25;99595.59;;;13.72;100.00
54978;BME280;40873;47.522;19.106;2023-05-17T04:12:58;99590.84;;;13.76;100.00
54978;BME280;40873;47.522;19.106;2023-05-17T04:15:26;99592.28;;;13.80;100.00
54978;BME280;40873;47.522;19.106;2023-05-17T04:17:53;99591.03;;;13.84;100.00
54978;BME280;40873;47.522;19.106;2023-05-17T04:20:21;99599.59;;;13.87;100.00
54978;BME280;40873;47.522;19.106;2023-05-17T04:22:48;99591.25;;;13.92;100.00
54978;BME280;40873;47.522;19.106;2023-05-17T04:25:15;99599.63;;;13.97;100.00
54978;BME280;40873;47.522;19.106;2023-05-17T04:27:46;99607.88;;;14.04;100.00
54978;BME280;40873;47.522;19.106;2023-05-17T04:30:13;99612.81;;;14.08;100.00
54978;BME280;40873;47.522;19.106;2023-05-17T04:32:40;99604.31;;;14.14;100.00
54978;BME280;40873;47.522;19.106;2023-05-17T04:35:09;99608.50;;;14.17;100.00
54978;BME280;40873;47.522;19.106;2023-05-17T04:37:37;99616.22;;;14.20;100.00
54978;BME280;40873;47.522;19.106;2023-05-17T04:40:09;99622.66;;;14.27;100.00
54978;BME280;40873;47.522;19.106;2023-05-17T04:42:36;99634.81;;;14.30;100.00
54978;BME280;40873;47.522;19.106;2023-05-17T04:45:06;99640.44;;;14.36;100.00
54978;BME280;40873;47.522;19.106;2023-05-17T04:47:36;99637.50;;;14.39;100.00
54978;BME280;40873;47.522;19.106;2023-05-17T04:50:04;99651.34;;;14.43;100.00
54978;BME280;40873;47.522;19.106;2023-05-17T04:52:31;99660.63;;;14.48;100.00
54978;BME280;40873;47.522;19.106;2023-05-17T04:54:58;99663.00;;;14.51;100.00
54978;BME280;40873;47.522;19.106;2023-05-17T04:57:25;99659.81;;;14.58;100.00
54978;BME280;40873;47.522;19.106;2023-05-17T04:59:52;99663.75;;;14.63;100.00
54978;BME280;40873;47.522;19.106;2023-05-17T05:02:19;99661.25;;;14.71;100.00
54978;BME280;40873;47.522;19.106;2023-05-17T05:04:46;99651.06;;;14.76;100.00
54978;BME280;40873;47.522;19.106;2023-05-17T05:07:14;99652.47;;;14.80;100.00
54978;BME280;40873;47.522;19.106;2023-05-17T05:09:41;99660.88;;;14.86;100.00
54978;BME280;40873;47.522;19.106;2023-05-17T05:12:08;99665.91;;;14.89;100.00
54978;BME280;40873;47.522;19.106;2023-05-17T05:14:36;99664.78;;;14.91;100.00
54978;BME280;40873;47.522;19.106;2023-05-17T05:17:05;99662.97;;;14.92;100.00
54978;BME280;40873;47.522;19.106;2023-05-17T05:19:35;99659.19;;;14.94;100.00
54978;BME280;40873;47.522;19.106;2023-05-17T05:22:02;99660.03;;;14.95;100.00
54978;BME280;40873;47.522;19.106;2023-05-17T05:24:29;99664.94;;;14.99;100.00
54978;BME280;40873;47.522;19.106;2023-05-17T05:26:59;99670.00;;;15.02;100.00
54978;BME280;40873;47.522;19.106;2023-05-17T05:29:26;99670.94;;;15.01;100.00
54978;BME280;40873;47.522;19.106;2023-05-17T05:31:54;99666.50;;;15.12;100.00
54978;BME280;40873;47.522;19.106;2023-05-17T05:34:21;99663.69;;;15.23;100.00
54978;BME280;40873;47.522;19.106;2023-05-17T05:36:48;99660.50;;;15.29;100.00
54978;BME280;40873;47.522;19.106;2023-05-17T05:39:15;99666.66;;;15.39;100.00
54978;BME280;40873;47.522;19.106;2023-05-17T05:41:42;99679.53;;;15.34;100.00
54978;BME280;40873;47.522;19.106;2023-05-17T05:44:10;99688.06;;;15.38;100.00
54978;BME280;40873;47.522;19.106;2023-05-17T05:46:36;99688.91;;;15.38;100.00
54978;BME280;40873;47.522;19.106;2023-05-17T05:49:03;99684.44;;;15.48;100.00
54978;BME280;40873;47.522;19.106;2023-05-17T05:51:31;99684.28;;;15.59;100.00
54978;BME280;40873;47.522;19.106;2023-05-17T05:53:59;99695.09;;;15.68;100.00
54978;BME280;40873;47.522;19.106;2023-05-17T05:56:26;99689.06;;;15.75;100.00
54978;BME280;40873;47.522;19.106;2023-05-17T05:58:55;99688.50;;;15.81;100.00
54978;BME280;40873;47.522;19.106;2023-05-17T06:01:23;99680.09;;;15.86;100.00
54978;BME280;40873;47.522;19.106;2023-05-17T06:03:51;99690.03;;;15.94;100.00
54978;BME280;40873;47.522;19.106;2023-05-17T06:06:18;99690.56;;;15.97;100.00
54978;BME280;40873;47.522;19.106;2023-05-17T06:08:48;99686.09;;;15.98;100.00
54978;BME280;40873;47.522;19.106;2023-05-17T06:11:15;99690.72;;;15.96;100.00
54978;BME280;40873;47.522;19.106;2023-05-17T06:13:43;99696.19;;;15.94;100.00
54978;BME280;40873;47.522;19.106;2023-05-17T06:16:11;99702.50;;;15.93;100.00
54978;BME280;40873;47.522;19.106;2023-05-17T06:18:39;99695.34;;;15.84;100.00
54978;BME280;40873;47.522;19.106;2023-05-17T06:21:07;99704.31;;;15.83;100.00
54978;BME280;40873;47.522;19.106;2023-05-17T06:23:34;99709.09;;;15.79;100.00
54978;BME280;40873;47.522;19.106;2023-05-17T06:26:01;99707.16;;;15.72;100.00
54978;BME280;40873;47.522;19.106;2023-05-17T06:28:28;99706.28;;;15.71;100.00
54978;BME280;40873;47.522;19.106;2023-05-17T06:30:55;99707.69;;;15.66;100.00
54978;BME280;40873;47.522;19.106;2023-05-17T06:33:22;99710.34;;;15.66;100.00
54978;BME280;40873;47.522;19.106;2023-05-17T06:35:49;99707.69;;;15.66;100.00
54978;BME280;40873;47.522;19.106;2023-05-17T06:38:23;99710.34;;;15.66;100.00
54978;BME280;40873;47.522;19.106;2023-05-17T06:40:51;99703.47;;;15.63;100.00
54978;BME280;40873;47.522;19.106;2023-05-17T06:43:20;99707.81;;;15.64;100.00
54978;BME280;40873;47.522;19.106;2023-05-17T06:45:47;99716.78;;;15.63;100.00
54978;BME280;40873;47.522;19.106;2023-05-17T06:48:14;99721.09;;;15.54;100.00
54978;BME280;40873;47.522;19.106;2023-05-17T06:50:41;99718.44;;;15.54;100.00
54978;BME280;40873;47.522;19.106;2023-05-17T06:53:12;99722.06;;;15.53;100.00
54978;BME280;40873;47.522;19.106;2023-05-17T06:55:42;99723.59;;;15.56;100.00
54978;BME280;40873;47.522;19.106;2023-05-17T06:58:10;99729.22;;;15.62;100.00
54978;BME280;40873;47.522;19.106;2023-05-17T07:00:37;99730.66;;;15.67;100.00
54978;BME280;40873;47.522;19.106;2023-05-17T07:03:04;99734.56;;;15.62;100.00
54978;BME280;40873;47.522;19.106;2023-05-17T07:05:31;99731.06;;;15.62;100.00
54978;BME280;40873;47.522;19.106;2023-05-17T07:07:59;99731.91;;;15.62;100.00
54978;BME280;40873;47.522;19.106;2023-05-17T07:10:26;99748.09;;;15.59;100.00
54978;BME280;40873;47.522;19.106;2023-05-17T07:12:53;99744.31;;;15.52;100.00
54978;BME280;40873;47.522;19.106;2023-05-17T07:15:21;99753.00;;;15.54;100.00
54978;BME280;40873;47.522;19.106;2023-05-17T07:17:48;99751.16;;;15.55;100.00
54978;BME280;40873;47.522;19.106;2023-05-17T07:20:15;99755.34;;;15.57;100.00
54978;BME280;40873;47.522;19.106;2023-05-17T07:22:42;99746.69;;;15.55;100.00
54978;BME280;40873;47.522;19.106;2023-05-17T07:25:09;99746.44;;;15.58;100.00
54978;BME280;40873;47.522;19.106;2023-05-17T07:27:36;99752.00;;;15.55;100.00
54978;BME280;40873;47.522;19.106;2023-05-17T07:30:04;99753.69;;;15.56;100.00
54978;BME280;40873;47.522;19.106;2023-05-17T07:32:33;99759.47;;;15.61;100.00
54978;BME280;40873;47.522;19.106;2023-05-17T07:34:59;99753.88;;;15.65;100.00
54978;BME280;40873;47.522;19.106;2023-05-17T07:37:28;99758.91;;;15.68;100.00
54978;BME280;40873;47.522;19.106;2023-05-17T07:39:59;99764.38;;;15.66;100.00
54978;BME280;40873;47.522;19.106;2023-05-17T07:42:29;99760.03;;;15.65;100.00
54978;BME280;40873;47.522;19.106;2023-05-17T07:44:56;99751.34;;;15.63;100.00
54978;BME280;40873;47.522;19.106;2023-05-17T07:47:23;99761.88;;;15.65;100.00
54978;BME280;40873;47.522;19.106;2023-05-17T07:49:53;99758.22;;;15.66;100.00
54978;BME280;40873;47.522;19.106;2023-05-17T07:52:20;99748.81;;;15.71;100.00
54978;BME280;40873;47.522;19.106;2023-05-17T07:54:47;99757.53;;;15.73;100.00
54978;BME280;40873;47.522;19.106;2023-05-17T07:57:14;99759.88;;;15.76;100.00
54978;BME280;40873;47.522;19.106;2023-05-17T07:59:41;99760.47;;;15.80;100.00
54978;BME280;40873;47.522;19.106;2023-05-17T08:02:08;99759.47;;;15.81;100.00
54978;BME280;40873;47.522;19.106;2023-05-17T08:04:35;99760.31;;;15.81;100.00
54978;BME280;40873;47.522;19.106;2023-05-17T08:07:03;99758.06;;;15.77;100.00
54978;BME280;40873;47.522;19.106;2023-05-17T08:09:31;99756.81;;;15.81;100.00
54978;BME280;40873;47.522;19.106;2023-05-17T08:11:58;99771.94;;;15.80;100.00
54978;BME280;40873;47.522;19.106;2023-05-17T08:14:25;99770.53;;;15.76;100.00
54978;BME280;40873;47.522;19.106;2023-05-17T08:16:52;99784.13;;;15.73;100.00
54978;BME280;40873;47.522;19.106;2023-05-17T08:19:19;99776.00;;;15.75;100.00
54978;BME280;40873;47.522;19.106;2023-05-17T08:21:48;99785.94;;;15.73;100.00
54978;BME280;40873;47.522;19.106;2023-05-17T08:24:15;99796.13;;;15.77;100.00
54978;BME280;40873;47.522;19.106;2023-05-17T08:26:43;99788.31;;;15.76;100.00
54978;BME280;40873;47.522;19.106;2023-05-17T08:29:10;99785.09;;;15.82;100.00
54978;BME280;40873;47.522;19.106;2023-05-17T08:31:38;99781.19;;;15.86;100.00
54978;BME280;40873;47.522;19.106;2023-05-17T08:34:05;99783.00;;;15.95;100.00
54978;BME280;40873;47.522;19.106;2023-05-17T08:36:33;99788.19;;;16.06;100.00
54978;BME280;40873;47.522;19.106;2023-05-17T08:39:00;99779.63;;;16.03;100.00
54978;BME280;40873;47.522;19.106;2023-05-17T08:41:27;99793.91;;;16.02;100.00
54978;BME280;40873;47.522;19.106;2023-05-17T08:44:03;99788.88;;;16.08;100.00
54978;BME280;40873;47.522;19.106;2023-05-17T08:46:33;99799.22;;;16.11;100.00
54978;BME280;40873;47.522;19.106;2023-05-17T08:49:04;99790.25;;;16.22;100.00
54978;BME280;40873;47.522;19.106;2023-05-17T08:51:33;99796.13;;;16.26;100.00
54978;BME280;40873;47.522;19.106;2023-05-17T08:54:02;99786.88;;;16.30;100.00
54978;BME280;40873;47.522;19.106;2023-05-17T08:56:31;99800.59;;;16.35;100.00
54978;BME280;40873;47.522;19.106;2023-05-17T08:58:58;99798.63;;;16.37;100.00
54978;BME280;40873;47.522;19.106;2023-05-17T09:01:26;99792.47;;;16.36;100.00
54978;BME280;40873;47.522;19.106;2023-05-17T09:03:59;99788.97;;;16.36;100.00
54978;BME280;40873;47.522;19.106;2023-05-17T09:06:26;99791.50;;;16.28;100.00
54978;BME280;40873;47.522;19.106;2023-05-17T09:08:53;99787.03;;;16.28;100.00
54978;BME280;40873;47.522;19.106;2023-05-17T09:11:26;99784.63;;;16.35;100.00
54978;BME280;40873;47.522;19.106;2023-05-17T09:13:58;99782.50;;;16.48;100.00
54978;BME280;40873;47.522;19.106;2023-05-17T09:16:29;99785.84;;;16.50;100.00
54978;BME280;40873;47.522;19.106;2023-05-17T09:19:00;99784.00;;;16.70;100.00
54978;BME280;40873;47.522;19.106;2023-05-17T09:21:28;99781.72;;;16.75;100.00
54978;BME280;40873;47.522;19.106;2023-05-17T09:23:58;99784.66;;;16.82;100.00
54978;BME280;40873;47.522;19.106;2023-05-17T09:26:41;99783.53;;;16.84;100.00
54978;BME280;40873;47.522;19.106;2023-05-17T09:29:10;99790.38;;;16.87;100.00
54978;BME280;40873;47.522;19.106;2023-05-17T09:31:38;99793.47;;;16.92;100.00
54978;BME280;40873;47.522;19.106;2023-05-17T09:34:06;99795.53;;;16.98;100.00
54978;BME280;40873;47.522;19.106;2023-05-17T09:36:36;99797.00;;;17.10;100.00
54978;BME280;40873;47.522;19.106;2023-05-17T09:39:05;99801.00;;;17.24;100.00
54978;BME280;40873;47.522;19.106;2023-05-17T09:41:44;99803.78;;;17.32;100.00
54978;BME280;40873;47.522;19.106;2023-05-17T09:44:16;99802.81;;;17.33;100.00
54978;BME280;40873;47.522;19.106;2023-05-17T09:46:45;99811.53;;;17.25;100.00
54978;BME280;40873;47.522;19.106;2023-05-17T09:49:14;99812.63;;;17.33;100.00
54978;BME280;40873;47.522;19.106;2023-05-17T09:51:43;99819.38;;;17.27;100.00
54978;BME280;40873;47.522;19.106;2023-05-17T09:54:11;99817.72;;;17.26;100.00
54978;BME280;40873;47.522;19.106;2023-05-17T09:56:39;99824.47;;;17.20;100.00
54978;BME280;40873;47.522;19.106;2023-05-17T09:59:14;99824.63;;;17.19;100.00
54978;BME280;40873;47.522;19.106;2023-05-17T10:01:43;99820.06;;;17.29;100.00
54978;BME280;40873;47.522;19.106;2023-05-17T10:04:12;99832.66;;;17.37;100.00
54978;BME280;40873;47.522;19.106;2023-05-17T10:06:41;99818.88;;;17.41;100.00
54978;BME280;40873;47.522;19.106;2023-05-17T10:09:17;99825.81;;;17.34;100.00
54978;BME280;40873;47.522;19.106;2023-05-17T10:11:49;99833.38;;;17.39;100.00
54978;BME280;40873;47.522;19.106;2023-05-17T10:14:30;99832.22;;;17.41;100.00
54978;BME280;40873;47.522;19.106;2023-05-17T10:16:59;99833.31;;;17.48;100.00
54978;BME280;40873;47.522;19.106;2023-05-17T10:19:29;99821.94;;;17.74;100.00
54978;BME280;40873;47.522;19.106;2023-05-17T10:21:56;99830.19;;;17.98;100.00
54978;BME280;40873;47.522;19.106;2023-05-17T10:24:37;99828.81;;;18.30;100.00
54978;BME280;40873;47.522;19.106;2023-05-17T10:27:05;99830.75;;;18.46;100.00
54978;BME280;40873;47.522;19.106;2023-05-17T10:29:36;99826.34;;;18.62;100.00
54978;BME280;40873;47.522;19.106;2023-05-17T10:32:05;99828.88;;;18.90;100.00
54978;BME280;40873;47.522;19.106;2023-05-17T10:34:41;99831.41;;;19.26;100.00
54978;BME280;40873;47.522;19.106;2023-05-17T10:37:10;99830.25;;;19.79;100.00
54978;BME280;40873;47.522;19.106;2023-05-17T10:39:39;99825.09;;;20.02;100.00
54978;BME280;40873;47.522;19.106;2023-05-17T10:42:09;99840.34;;;20.09;100.00
54978;BME280;40873;47.522;19.106;2023-05-17T10:44:41;99833.16;;;20.10;100.00
54978;BME280;40873;47.522;19.106;2023-05-17T10:47:09;99829.81;;;20.24;100.00
54978;BME280;40873;47.522;19.106;2023-05-17T10:49:43;99836.50;;;20.12;100.00
54978;BME280;40873;47.522;19.106;2023-05-17T10:52:16;99842.84;;;19.94;100.00
54978;BME280;40873;47.522;19.106;2023-05-17T10:54:46;99850.88;;;20.03;100.00
54978;BME280;40873;47.522;19.106;2023-05-17T10:57:33;99846.34;;;19.95;100.00
54978;BME280;40873;47.522;19.106;2023-05-17T11:00:05;99838.66;;;20.16;100.00
54978;BME280;40873;47.522;19.106;2023-05-17T11:02:39;99839.00;;;20.05;100.00
54978;BME280;40873;47.522;19.106;2023-05-17T11:05:25;99850.91;;;19.18;100.00
54978;BME280;40873;47.522;19.106;2023-05-17T11:08:14;99857.69;;;19.04;100.00
54978;BME280;40873;47.522;19.106;2023-05-17T11:11:13;99859.94;;;19.17;100.00
54978;BME280;40873;47.522;19.106;2023-05-17T11:13:56;99866.56;;;19.05;100.00
54978;BME280;40873;47.522;19.106;2023-05-17T11:16:33;99860.41;;;18.78;100.00
54978;BME280;40873;47.522;19.106;2023-05-17T11:19:08;99868.44;;;18.78;100.00
54978;BME280;40873;47.522;19.106;2023-05-17T11:21:46;99863.47;;;18.48;100.00
54978;BME280;40873;47.522;19.106;2023-05-17T11:24:24;99861.50;;;18.50;100.00
54978;BME280;40873;47.522;19.106;2023-05-17T11:26:54;99868.41;;;18.60;100.00
54978;BME280;40873;47.522;19.106;2023-05-17T11:29:28;99877.53;;;18.50;100.00
54978;BME280;40873;47.522;19.106;2023-05-17T11:32:08;99888.03;;;18.69;100.00
54978;BME280;40873;47.522;19.106;2023-05-17T11:34:36;99882.56;;;18.71;100.00
54978;BME280;40873;47.522;19.106;2023-05-17T11:37:09;99877.41;;;18.77;100.00
54978;BME280;40873;47.522;19.106;2023-05-17T11:40:04;99895.47;;;18.57;100.00
54978;BME280;40873;47.522;19.106;2023-05-17T11:42:35;99887.69;;;18.46;100.00
54978;BME280;40873;47.522;19.106;2023-05-17T11:45:04;99893.97;;;18.63;100.00
54978;BME280;40873;47.522;19.106;2023-05-17T11:47:32;99893.25;;;18.71;100.00
54978;BME280;40873;47.522;19.106;2023-05-17T11:50:02;99891.47;;;18.79;100.00
54978;BME280;40873;47.522;19.106;2023-05-17T11:52:30;99887.50;;;18.66;100.00
54978;BME280;40873;47.522;19.106;2023-05-17T11:54:58;99898.47;;;18.62;100.00
54978;BME280;40873;47.522;19.106;2023-05-17T11:57:29;99894.88;;;18.89;100.00
54978;BME280;40873;47.522;19.106;2023-05-17T12:00:02;99908.00;;;19.01;100.00
54978;BME280;40873;47.522;19.106;2023-05-17T12:02:31;99904.56;;;18.90;100.00
54978;BME280;40873;47.522;19.106;2023-05-17T12:05:01;99906.97;;;18.58;100.00
54978;BME280;40873;47.522;19.106;2023-05-17T12:07:28;99903.53;;;18.48;100.00
54978;BME280;40873;47.522;19.106;2023-05-17T12:09:56;99899.06;;;18.30;100.00
54978;BME280;40873;47.522;19.106;2023-05-17T12:12:23;99904.88;;;18.44;100.00
54978;BME280;40873;47.522;19.106;2023-05-17T12:14:54;99901.13;;;18.72;100.00
54978;BME280;40873;47.522;19.106;2023-05-17T12:17:30;99901.72;;;18.48;100.00
54978;BME280;40873;47.522;19.106;2023-05-17T12:20:10;99904.00;;;18.25;100.00
54978;BME280;40873;47.522;19.106;2023-05-17T12:22:53;99905.94;;;18.15;100.00
54978;BME280;40873;47.522;19.106;2023-05-17T12:25:22;99906.81;;;18.42;100.00
54978;BME280;40873;47.522;19.106;2023-05-17T12:28:15;99905.16;;;18.41;100.00
54978;BME280;40873;47.522;19.106;2023-05-17T12:30:43;99909.28;;;18.17;100.00
54978;BME280;40873;47.522;19.106;2023-05-17T12:33:12;99908.69;;;18.23;100.00
54978;BME280;40873;47.522;19.106;2023-05-17T12:35:40;99906.09;;;18.31;100.00
54978;BME280;40873;47.522;19.106;2023-05-17T12:38:07;99909.88;;;18.11;100.00
54978;BME280;40873;47.522;19.106;2023-05-17T12:40:35;99916.91;;;17.94;100.00
54978;BME280;40873;47.522;19.106;2023-05-17T12:43:03;99916.66;;;17.88;100.00
54978;BME280;40873;47.522;19.106;2023-05-17T12:45:30;99918.81;;;17.47;100.00
54978;BME280;40873;47.522;19.106;2023-05-17T12:47:59;99919.88;;;17.54;100.00
54978;BME280;40873;47.522;19.106;2023-05-17T12:50:30;99923.66;;;17.51;100.00
54978;BME280;40873;47.522;19.106;2023-05-17T12:52:57;99919.16;;;17.52;100.00
54978;BME280;40873;47.522;19.106;2023-05-17T12:55:24;99919.31;;;17.50;100.00
54978;BME280;40873;47.522;19.106;2023-05-17T12:57:53;99932.97;;;17.47;100.00
54978;BME280;40873;47.522;19.106;2023-05-17T13:00:20;99935.13;;;17.24;100.00
54978;BME280;40873;47.522;19.106;2023-05-17T13:02:47;99933.97;;;17.37;100.00
54978;BME280;40873;47.522;19.106;2023-05-17T13:05:18;99930.47;;;17.46;100.00